Stations météo

réclame
Mon MeteoGroup
Embrun, France (7591): Température de l'air & dewpoint: 13.11.2017 18:00:00 - 19.11.2017 18:00:00 (CET)Embrun, France (7591): Température de l'air 5cm: 13.11.2017 18:00:00 - 19.11.2017 18:00:00 (CET)Embrun, France (7591): Température de l'air -20cm & Température de l'air -100cm: 13.11.2017 18:00:00 - 19.11.2017 18:00:00 (CET)Embrun, France (7591): Vitesse du vent & gusts: 13.11.2017 18:00:00 - 19.11.2017 18:00:00 (CET)Embrun, France (7591): Direction du vent: 13.11.2017 18:00:00 - 19.11.2017 18:00:00 (CET)Embrun, France (7591): visibility: 13.11.2017 18:00:00 - 19.11.2017 18:00:00 (CET)Embrun, France (7591): Ensoleillement: 13.11.2017 18:00:00 - 19.11.2017 18:00:00 (CET)Embrun, France (7591): Quantités de précipitations: 13.11.2017 18:00:00 - 19.11.2017 18:00:00 (CET)
Date & Time tt [°C] td [°C] tt 5cm [°C] tt -20cm [°C] tt -100cm [°C] ff [km/h] ff [knt] fx [km/h] fx [knt] dd vv [km] sd [min] rr [mm]
19.11.2017 18:00:00 5,5 -3,9 2,0 5,8 11,3 5 3 9 5 NNW 8 0 0,0
19.11.2017 17:00:00 9,0 -3,6 6,3 5,8 11,3 7 4 20 11 SW 9 55 0,0
19.11.2017 16:00:00 11,8 -2,8 12,5 5,7 11,3 9 5 25 13 SW 20 60 0,0
19.11.2017 15:00:00 12,3 -2,0 16,8 5,7 11,3 8 5 20 11 SW 20 60 0,0
19.11.2017 14:00:00 11,1 -3,1 16,9 5,7 11,3 9 5 20 11 SSW 20 60 0,0
19.11.2017 13:00:00 8,6 -4,6 14,7 5,8 11,3 4 2 15 8 SSW 20 60 0,0
19.11.2017 12:00:00 5,6 -7,6 12,8 5,8 11,3 5 3 13 7 S 20 60 0,0
19.11.2017 11:00:00 2,5 -6,4 8,4 5,9 11,3 3 1 9 5 ESE 20 60 0,0
19.11.2017 10:00:00 -1,5 -7,4 -5,1 5,9 11,3 4 2 9 5 NNE 20 28 0,0
19.11.2017 09:00:00 -4,2 -8,5 -6,3 6,0 11,3 0 0 10 5 N 20 0 0,0
19.11.2017 08:00:00 -4,4 -8,2 -7,2 6,1 11,3 2 1 10 5 N 20 0 0,0
19.11.2017 07:00:00 -4,4 -8,0 -7,1 6,2 11,4 2 1 10 5 WSW 20 0 0,0
19.11.2017 06:00:00 -4,3 -7,4 -7,3 6,2 11,4 3 2 11 6 NNW 20 0 0,0
19.11.2017 05:00:00 -4,1 -6,9 -7,2 6,3 11,4 2 1 10 5 SSW 20 0 0,0
19.11.2017 04:00:00 -3,4 -7,0 -6,7 6,3 11,4 4 2 9 5 NNE 20 0 0,0
19.11.2017 03:00:00 -3,3 -6,1 -6,8 6,4 11,4 2 1 5 3 NNE 20 0 0,0
19.11.2017 02:00:00 -3,2 -6,2 -5,8 6,4 11,4 2 1 11 6 S 20 0 0,0
19.11.2017 01:00:00 -2,4 -5,2 -6,0 6,5 11,4 0 0 6 4 N 19 0 0,0
19.11.2017 00:00:00 -2,1 -4,9 -5,4 6,5 11,4 0 0 11 6 N 20 0 0,0
18.11.2017 23:00:00 -2,0 -4,5 -4,9 6,5 11,4 5 3 7 4 N 20 0 0,0
18.11.2017 22:00:00 -0,7 -3,9 -4,2 6,5 11,4 0 0 9 5 N 15 0 0,0
18.11.2017 21:00:00 -0,3 -3,8 -3,6 6,5 11,4 0 0 5 3 N 16 0 0,0
18.11.2017 20:00:00 0,9 -4,0 -2,7 6,5 11,4 5 3 8 4 NNE 19 0 0,0
18.11.2017 19:00:00 2,1 -3,4 -1,3 6,4 11,4 2 1 7 4 ENE 20 0 0,0
18.11.2017 18:00:00 3,4 -2,8 -0,2 6,4 11,4 3 2 6 3 NNW 20 0 0,0
18.11.2017 17:00:00 6,6 -3,1 4,7 6,2 11,4 4 2 11 6 SSW 20 53 0,0
18.11.2017 16:00:00 9,0 -2,3 11,9 6,2 11,4 8 5 16 9 SSW 20 60 0,0
18.11.2017 15:00:00 9,9 -2,1 15,9 6,2 11,4 7 4 15 8 SSW 20 60 0,0
18.11.2017 14:00:00 9,3 -2,0 15,9 6,2 11,4 9 5 15 8 SSW 20 60 0,0
18.11.2017 13:00:00 8,1 -2,6 14,5 6,2 11,5 8 4 18 10 SSW 20 60 0,0
18.11.2017 12:00:00 6,2 -3,5 12,6 6,3 11,5 5 3 13 7 S 20 60 0,0
18.11.2017 11:00:00 4,1 -2,3 10,3 6,3 11,4 5 3 10 5 S 19 60 0,0
18.11.2017 10:00:00 2,0 -2,7 1,6 6,4 11,5 3 1 6 3 SSE 20 60 0,0
18.11.2017 09:00:00 -2,1 -4,0 -5,5 6,5 11,5 0 0 4 2 N 20 4 0,0
18.11.2017 08:00:00 -2,6 -4,5 -5,5 6,5 11,5 2 1 4 2 W 20 0 0,0
18.11.2017 07:00:00 -2,4 -4,3 -5,5 6,6 11,5 3 2 7 4 NE 20 0 0,0
18.11.2017 06:00:00 -2,5 -4,5 -5,6 6,6 11,5 0 0 4 2 N 20 0 0,0
18.11.2017 05:00:00 -2,1 -4,3 -5,4 6,7 11,5 4 2 6 3 NE 20 0 0,0
18.11.2017 04:00:00 -1,4 -3,8 -4,8 6,8 11,5 2 1 6 3 W 20 0 0,0
18.11.2017 03:00:00 -0,8 -3,7 -4,3 6,8 11,5 3 2 9 5 N 20 0 0,0
18.11.2017 02:00:00 -1,1 -3,9 -4,2 6,8 11,5 0 0 4 2 N 20 0 0,0
18.11.2017 01:00:00 -0,1 -3,5 -3,3 6,9 11,5 0 0 7 4 N 20 0 0,0
18.11.2017 00:00:00 0,5 -4,0 -3,1 6,9 11,5 0 0 7 4 N 20 0 0,0
17.11.2017 23:00:00 0,2 -4,4 -2,1 6,9 11,6 2 1 8 5 WSW 20 0 0,0
17.11.2017 22:00:00 2,4 -3,7 -1,7 6,9 11,6 7 4 11 6 NNE 20 0 0,0
17.11.2017 21:00:00 2,5 -3,8 -0,7 6,9 11,6 0 0 6 3 N 20 0 0,0
17.11.2017 20:00:00 3,4 -3,9 0,3 6,8 11,6 0 0 8 5 N 20 0 0,0
17.11.2017 19:00:00 4,8 -3,7 1,2 6,8 11,6 5 3 8 5 NNE 20 0 0,0
17.11.2017 18:00:00 6,1 -3,3 2,4 6,7 11,6 4 2 6 4 N 20 0 0,0
17.11.2017 17:00:00 9,2 -4,1 7,5 6,6 11,6 4 2 14 8 SSW 20 58 0,0
17.11.2017 16:00:00 12,5 -3,8 15,3 6,6 11,6 7 4 13 7 SSW 20 60 0,0
17.11.2017 15:00:00 13,5 -3,3 19,4 6,5 11,6 6 3 15 8 S 20 60 0,0
17.11.2017 14:00:00 12,0 -3,4 17,9 6,5 11,6 11 6 18 10 SSW 20 60 0,0
17.11.2017 13:00:00 11,1 -4,6 17,6 6,5 11,6 11 6 16 9 SSW 20 60 0,0
17.11.2017 12:00:00 9,3 -4,3 14,6 6,6 11,6 9 5 14 8 SSW 20 60 0,0
17.11.2017 11:00:00 7,9 -3,9 12,0 6,6 11,6 11 6 26 14 S 20 60 0,0
17.11.2017 10:00:00 6,9 -5,8 4,5 6,7 11,6 16 9 31 17 NE 20 60 0,0
17.11.2017 09:00:00 1,7 -5,7 -3,4 6,7 11,6 14 8 21 11 NE 20 4 0,0
17.11.2017 08:00:00 -1,2 -5,4 -4,0 6,8 11,7 4 2 6 3 ENE 20 0 0,0
17.11.2017 07:00:00 0,1 -5,7 -3,5 6,8 11,7 3 1 7 4 E 20 0 0,0
17.11.2017 06:00:00 -0,2 -4,8 -3,1 6,9 11,7 2 1 21 11 NNW 20 0 0,0
17.11.2017 05:00:00 0,5 -4,5 -3,4 6,9 11,7 15 8 21 11 NE 20 0 0,0
17.11.2017 04:00:00 0,4 -3,9 -3,1 7,0 11,7 2 1 6 3 NNW 20 0 0,0
17.11.2017 03:00:00 0,9 -3,4 -2,5 7,0 11,7 0 0 5 3 N 20 0 0,0
17.11.2017 02:00:00 1,4 -3,5 -1,6 7,0 11,7 0 0 8 5 N 20 0 0,0
17.11.2017 01:00:00 3,1 -3,9 -0,7 7,0 11,7 4 2 9 5 E 20 0 0,0
17.11.2017 00:00:00 3,2 -3,8 -0,5 7,0 11,7 4 2 7 4 ENE 20 0 0,0
16.11.2017 23:00:00 3,6 -3,0 -0,5 7,0 11,7 0 0 7 4 N 20 0 0,0
16.11.2017 22:00:00 3,4 -3,2 1,0 7,0 11,8 4 2 13 7 S 20 0 0,0
16.11.2017 21:00:00 5,3 -3,0 2,0 7,0 11,8 10 5 16 9 NE 20 0 0,0
16.11.2017 20:00:00 5,8 -3,3 2,7 6,9 11,8 6 3 11 6 NNE 20 0 0,0
16.11.2017 19:00:00 6,5 -3,5 2,7 6,8 11,7 4 2 9 5 NNE 20 0 0,0
16.11.2017 18:00:00 7,7 -3,2 3,6 6,8 11,8 3 2 7 4 N 16 0 0,0
16.11.2017 17:00:00 11,0 -3,5 8,1 6,7 11,8 4 2 9 5 WSW 20 44 0,0
16.11.2017 16:00:00 15,0 -3,9 19,0 6,6 11,8 4 2 18 10 SW 20 60 0,0
16.11.2017 15:00:00 14,6 -3,7 19,6 6,5 11,8 9 5 20 11 SSW 20 60 0,0
16.11.2017 14:00:00 13,8 -2,6 19,9 6,5 11,8 11 6 16 9 SSW 20 60 0,0
16.11.2017 13:00:00 13,6 -3,2 20,7 6,5 11,8 7 4 13 7 S 20 60 0,0
16.11.2017 12:00:00 12,4 -3,0 19,8 6,5 11,9 5 3 20 11 S 20 60 0,0
16.11.2017 11:00:00 10,8 -4,1 15,6 6,5 11,8 11 6 24 13 NE 20 60 0,0
16.11.2017 10:00:00 7,6 -4,5 8,7 6,6 11,9 10 5 19 11 E 20 60 0,0
16.11.2017 09:00:00 3,1 -4,8 1,2 6,6 11,9 3 2 14 8 ENE 20 5 0,0
16.11.2017 08:00:00 3,1 -5,8 1,0 6,6 11,9 6 3 25 14 ENE 20 0 0,0
16.11.2017 07:00:00 3,2 -6,2 0,4 6,7 11,9 11 6 22 12 NE 20 0 0,0
16.11.2017 06:00:00 3,7 -6,3 -0,1 6,7 11,9 10 5 25 13 NE 20 0 0,0
16.11.2017 05:00:00 3,4 -6,3 1,3 6,7 11,9 0 0 29 15 N 20 0 0,0
16.11.2017 04:00:00 4,3 -6,9 2,4 6,8 11,9 10 5 30 16 NE 20 0 0,0
16.11.2017 03:00:00 5,3 -7,2 2,3 6,8 11,9 20 11 34 18 N 20 0 0,0
16.11.2017 02:00:00 6,2 -7,4 3,7 6,8 11,9 24 13 34 19 N 20 0 0,0
16.11.2017 01:00:00 5,4 -7,5 3,1 6,8 12,0 11 6 25 14 NNE 20 0 0,0
16.11.2017 00:00:00 6,1 -7,5 4,4 6,8 11,9 16 9 39 21 N 20 0 0,0
15.11.2017 23:00:00 7,0 -7,4 4,7 6,8 11,9 20 11 34 18 N 20 0 0,0
15.11.2017 22:00:00 6,9 -7,5 4,1 6,8 12,0 10 5 25 14 N 20 0 0,0
15.11.2017 21:00:00 7,4 -7,5 3,8 6,8 12,0 11 6 22 12 NNE 20 0 0,0
15.11.2017 20:00:00 7,2 -6,9 2,4 6,7 12,0 9 5 19 10 NNE 20 0 0,0
15.11.2017 19:00:00 6,7 -4,7 2,5 6,6 12,0 4 2 9 5 N 20 0 0,0
15.11.2017 18:00:00 8,4 -3,2 4,1 6,6 12,0 3 1 8 4 W 20 0 0,0
15.11.2017 17:00:00 11,1 -3,4 8,8 6,5 12,0 5 3 13 7 S 20 56 0,0
15.11.2017 16:00:00 14,7 -4,1 17,9 6,5 12,0 8 4 29 15 SSW 20 60 0,0
15.11.2017 15:00:00 17,1 -10,7 23,0 6,4 12,0 16 9 36 19 ENE 20 60 0,0
15.11.2017 14:00:00 17,1 -10,7 22,0 6,4 12,0 18 10 32 17 ENE 20 60 0,0
15.11.2017 13:00:00 13,7 -2,7 21,3 6,5 12,0 10 5 22 12 E 20 60 0,0
15.11.2017 12:00:00 11,4 0,2 15,5 6,6 12,1 3 2 13 7 S 20 60 0,0
15.11.2017 11:00:00 6,4 -0,8 10,6 6,6 12,1 5 3 10 6 S 20 60 0,0
15.11.2017 10:00:00 1,8 -2,9 4,6 6,7 12,1 4 2 11 6 SSW 20 60 0,0
15.11.2017 09:00:00 -1,6 -4,0 -4,7 6,8 12,1 4 2 7 4 SSW 20 6 0,0
15.11.2017 08:00:00 -3,2 -5,5 -6,4 6,8 12,1 2 1 6 3 S 20 0 0,0
15.11.2017 07:00:00 -3,5 -5,7 -6,2 6,9 12,1 2 1 9 5 WNW 20 0 0,0
15.11.2017 06:00:00 -3,1 -5,4 -6,3 6,9 12,1 0 0 6 3 N 19 0 0,0
15.11.2017 05:00:00 -3,3 -6,1 -6,0 7,0 12,2 5 3 9 5 NNE 20 0 0,0
15.11.2017 04:00:00 -2,8 -5,8 -5,5 7,1 12,2 3 2 8 5 WSW 20 0 0,0
15.11.2017 03:00:00 -3,0 -5,8 -5,4 7,1 12,2 3 2 6 3 S 20 0 0,0
15.11.2017 02:00:00 -2,8 -6,1 -5,5 7,2 12,2 5 3 7 4 E 20 0 0,0
15.11.2017 01:00:00 -2,5 -5,5 -5,1 7,2 12,2 3 1 7 4 E 20 0 0,0
15.11.2017 00:00:00 -1,6 -5,3 -4,5 7,2 12,2 2 1 6 3 W 20 0 0,0
14.11.2017 23:00:00 -1,3 -5,3 -4,4 7,3 12,2 3 2 7 4 NNE 20 0 0,0
14.11.2017 22:00:00 -0,5 -5,3 -3,5 7,3 12,2 3 2 7 4 N 20 0 0,0
14.11.2017 21:00:00 0,2 -5,4 -3,4 7,3 12,2 2 1 6 4 NNE 20 0 0,0
14.11.2017 20:00:00 1,2 -5,3 -2,2 7,2 12,2 0 0 6 3 N 20 0 0,0
14.11.2017 19:00:00 2,4 -5,0 -1,2 7,2 12,2 2 1 8 4 N 20 0 0,0
14.11.2017 18:00:00 3,6 -5,1 1,0 7,2 12,2 2 1 21 12 S 20 0 0,0
14.11.2017 17:00:00 6,0 -5,7 4,8 7,2 12,3 8 5 47 25 SSW 20 48 0,0
14.11.2017 16:00:00 12,1 -10,9 14,4 7,1 12,2 26 14 53 29 NNE 20 60 0,0
14.11.2017 15:00:00 12,2 -10,8 15,9 7,1 12,3 33 18 71 38 NE 20 60 0,0
14.11.2017 14:00:00 12,3 -12,9 15,6 7,1 12,2 29 16 56 30 NNE 20 60 0,0
14.11.2017 13:00:00 9,1 -7,2 13,2 7,2 12,3 13 7 35 19 S 20 60 0,0
14.11.2017 12:00:00 8,0 -5,5 12,4 7,3 12,3 11 6 27 14 SSE 20 60 0,0
14.11.2017 11:00:00 5,0 -5,4 9,5 7,4 12,3 13 7 23 12 SSW 20 60 0,0
14.11.2017 10:00:00 2,7 -6,2 5,0 7,4 12,3 8 4 15 8 S 20 60 0,0
14.11.2017 09:00:00 -0,5 -9,2 -3,6 7,5 12,3 4 2 11 6 S 20 7 0,0
14.11.2017 08:00:00 -1,4 -10,8 -5,3 7,6 12,3 4 2 10 5 WNW 20 0 0,0
14.11.2017 07:00:00 -1,8 -11,1 -5,2 7,7 12,3 4 2 7 4 NNE 20 0 0,0
14.11.2017 06:00:00 -1,4 -11,0 -4,6 7,7 12,3 0 0 19 10 N 20 0 0,0
14.11.2017 05:00:00 -0,7 -10,6 -3,9 7,8 12,3 4 2 15 8 NNW 20 0 0,0
14.11.2017 04:00:00 1,5 -11,6 -0,3 7,8 12,3 5 3 37 20 W 20 0 0,0
14.11.2017 03:00:00 2,8 -12,3 0,1 7,9 12,3 20 11 46 25 N 20 0 0,0
14.11.2017 02:00:00 2,5 -12,2 -0,3 8,0 12,4 7 4 36 20 N 20 0 0,0
14.11.2017 01:00:00 3,1 -11,6 1,8 8,0 12,4 28 15 48 26 N 20 0 0,0
14.11.2017 00:00:00 3,4 -11,8 0,2 8,1 12,4 22 12 44 24 N 20 0 0,0
13.11.2017 23:00:00 1,6 -9,7 -3,4 8,1 12,4 15 8 22 12 N 20 0 0,0
13.11.2017 22:00:00 0,3 -6,8 -2,9 8,1 12,4 2 1 13 7 W 20 0 0,0
13.11.2017 21:00:00 1,1 -6,7 -1,6 8,1 12,4 3 2 18 10 SSW 20 0 0,0
13.11.2017 20:00:00 3,2 -7,9 2,0 8,1 12,4 10 5 46 25 S 20 0 0,0
13.11.2017 19:00:00 5,5 -12,1 4,1 8,2 12,4 24 13 54 29 NE 20 0 0,0
13.11.2017 18:00:00 5,7 -11,9 4,1 8,1 12,4 27 15 54 29 ENE 20 0 0,0

tt = Température de l'air
td = dewpoint
tt 5cm = Température de l'air 5cm
tt -20cm = Température de l'air -20cm
tt -100cm = Température de l'air -100cm
ff = Vitesse du vent
fx = gusts
dd = Direction du vent
vv = visibility
sd = Ensoleillement
rr = Quantités de précipitations

stations d'obs. à proximité